EmailTwitter


Observations de surface / Québec / CYHU (71371)

Régions: Québec | Canada | États-Unis | Europe | France | UK | Ailleurs
Station
Affichage
Infos & localisation pour CYHU (71371) | Aide pour décoder les METARs

Observations prises le 2017-09-20 à 03H00 UTC à MONTREAL/ST HUBE, QB (CYHU)

Etat du ciel: dégagé.

Température: 19.0 Celsius

Point de rosée: 17.0 Celsius

Humidité relative: 88%

Indice Humidex: 24.

Vents: Sud-ouest à 4 km/h ou 2 noeuds.

Pression au niveau moyen de la mer: 101.72 kilopascals.

Calage altimétrique: 101.69 kilopascals ou 30.03 pouces de mercure.

Visibilité horizontale: 9.00 milles terrestres ou 14.40 kilomètres.

Observation METAR:

CYHU 200300Z AUTO 21002KT 9SM CLR 19/17 A3003 RMK SLP172 DENSITY ALT 400FT=